Date,TemperatureHighF,TemperatureAvgF,TemperatureLowF,DewpointHighF,DewpointAvgF,DewpointLowF,HumidityHigh,HumidityAvg,HumidityLow,PressureMaxIn,PressureMinIn,WindSpeedMaxMPH,WindSpeedAvgMPH,GustSpeedMaxMPH,PrecipitationSumIn
2013-1-1,29.7,25.1,14.9,23.9,18.9,10.3,86,77,64,30.01,29.89,10,3,12,0.00
2013-1-2,23.5,13.7,5.6,10.5,5.2,0.2,85,69,55,30.10,30.00,12,4,17,0.00
2013-1-3,29.7,22.7,13.6,23.4,14.7,3.7,82,71,59,30.11,29.99,17,8,22,0.00
2013-1-4,28.2,20.2,11.6,20.7,14.2,6.1,83,77,70,30.14,30.06,22,11,30,0.00
2013-1-5,34.0,28.0,20.6,28.1,21.8,16.0,86,78,66,30.13,29.89,19,6,21,0.00
2013-1-6,35.3,30.2,23.5,29.8,24.2,17.7,87,78,75,30.17,29.78,19,10,24,0.00
2013-1-7,35.0,26.6,17.8,24.1,20.3,14.9,89,77,63,30.25,30.01,17,5,25,0.00
2013-1-8,40.8,32.4,25.8,27.4,23.9,20.1,80,71,57,30.08,29.96,10,3,13,0.00
2013-1-9,45.2,39.6,32.7,33.9,28.8,20.0,77,65,45,30.32,29.92,21,8,25,0.00
2013-1-10,39.9,33.0,23.9,36.5,26.0,19.2,92,76,60,30.35,29.86,17,5,18,0.48
2013-1-11,53.9,49.6,38.8,50.9,45.4,36.4,94,86,73,29.86,29.54,20,8,26,0.32
2013-1-12,58.6,51.9,40.1,48.5,45.9,37.7,92,80,67,29.76,29.61,20,7,25,0.33
2013-1-13,39.9,32.4,17.8,37.5,29.6,11.8,93,89,77,30.04,29.58,21,10,25,0.36
2013-1-14,21.6,17.3,12.9,15.2,11.7,7.3,86,78,74,30.32,30.05,17,4,20,0.00
2013-1-15,30.9,22.0,12.8,19.9,15.8,8.9,86,77,59,30.28,29.98,10,2,12,0.00
2013-1-16,35.2,28.4,21.1,26.1,20.5,16.6,88,73,49,29.97,29.75,21,8,27,0.00
2013-1-17,34.7,29.4,21.3,26.1,19.3,11.7,84,66,47,30.23,29.88,25,8,26,0.00
2013-1-18,38.6,29.0,18.9,24.4,17.8,10.7,78,63,48,30.30,29.87,27,9,34,0.00
2013-1-19,48.9,42.0,36.8,34.0,29.2,24.2,73,60,51,29.87,29.62,34,16,36,0.01
2013-1-20,40.8,22.7,17.7,29.8,7.6,3.3,65,52,41,30.10,29.65,37,12,45,0.00
2013-1-21,17.8,12.2,5.6,5.2,-1.8,-8.5,67,53,37,30.10,29.96,30,14,36,0.00
2013-1-22,11.9,6.8,2.0,-3.7,-6.9,-9.9,66,53,41,30.23,30.10,19,10,22,0.00
2013-1-23,20.2,14.7,9.2,12.9,2.9,-3.3,82,59,45,30.20,29.95,18,8,31,0.00
2013-1-24,23.0,16.2,7.7,13.3,4.7,-2.6,84,62,34,30.47,30.02,19,4,22,0.00
2013-1-25,26.0,21.2,17.7,19.5,13.4,5.9,83,72,57,30.27,29.86,16,5,17,0.00
2013-1-26,27.6,23.7,19.7,18.2,15.2,11.4,76,70,59,30.27,29.92,15,5,20,0.00
2013-1-27,34.3,27.1,20.0,32.0,20.2,13.2,91,75,62,30.27,29.86,16,4,18,0.15
2013-1-28,49.1,45.3,34.6,48.6,44.4,32.2,100,97,91,29.87,29.73,24,7,25,0.11
2013-1-29,58.7,55.4,48.6,55.4,53.7,48.6,100,94,88,29.75,29.19,20,9,25,0.67
2013-1-30,57.6,44.0,26.0,54.7,41.5,19.5,100,91,76,29.36,29.02,27,10,36,0.58
2013-1-31,25.7,17.6,7.9,19.2,9.3,-0.3,83,69,58,29.93,29.36,31,17,42,0.00